sensor_id;sensor_type;location;lat;lon;timestamp;temperature;humidity
26579;DHT22;14227;47.674;19.320;2022-07-29T00:01:18;29.40;26.80
26579;DHT22;14227;47.674;19.320;2022-07-29T00:03:43;29.30;26.90
26579;DHT22;14227;47.674;19.320;2022-07-29T00:06:09;29.30;27.00
26579;DHT22;14227;47.674;19.320;2022-07-29T00:08:35;29.30;27.00
26579;DHT22;14227;47.674;19.320;2022-07-29T00:11:00;29.20;26.90
26579;DHT22;14227;47.674;19.320;2022-07-29T00:13:26;29.20;27.00
26579;DHT22;14227;47.674;19.320;2022-07-29T00:15:52;29.20;26.90
26579;DHT22;14227;47.674;19.320;2022-07-29T00:18:17;29.10;26.90
26579;DHT22;14227;47.674;19.320;2022-07-29T00:20:43;29.10;26.90
26579;DHT22;14227;47.674;19.320;2022-07-29T00:23:08;29.10;27.00
26579;DHT22;14227;47.674;19.320;2022-07-29T00:25:34;29.10;27.10
26579;DHT22;14227;47.674;19.320;2022-07-29T00:28:00;29.10;27.20
26579;DHT22;14227;47.674;19.320;2022-07-29T00:30:26;29.00;27.30
26579;DHT22;14227;47.674;19.320;2022-07-29T00:32:51;29.00;27.30
26579;DHT22;14227;47.674;19.320;2022-07-29T00:35:17;29.00;27.40
26579;DHT22;14227;47.674;19.320;2022-07-29T00:38:00;28.90;27.50
26579;DHT22;14227;47.674;19.320;2022-07-29T00:40:26;28.80;27.30
26579;DHT22;14227;47.674;19.320;2022-07-29T00:42:52;28.90;27.70
26579;DHT22;14227;47.674;19.320;2022-07-29T00:45:18;28.90;27.70
26579;DHT22;14227;47.674;19.320;2022-07-29T00:47:44;28.80;27.50
26579;DHT22;14227;47.674;19.320;2022-07-29T00:50:11;28.80;27.60
26579;DHT22;14227;47.674;19.320;2022-07-29T00:52:38;28.80;27.70
26579;DHT22;14227;47.674;19.320;2022-07-29T00:55:07;28.80;27.80
26579;DHT22;14227;47.674;19.320;2022-07-29T00:57:35;28.80;27.80
26579;DHT22;14227;47.674;19.320;2022-07-29T01:00:03;28.70;27.70
26579;DHT22;14227;47.674;19.320;2022-07-29T01:02:29;28.70;27.80
26579;DHT22;14227;47.674;19.320;2022-07-29T01:04:54;28.70;27.70
26579;DHT22;14227;47.674;19.320;2022-07-29T01:07:23;28.70;27.90
26579;DHT22;14227;47.674;19.320;2022-07-29T01:09:50;28.60;27.90
26579;DHT22;14227;47.674;19.320;2022-07-29T01:12:24;28.60;27.80
26579;DHT22;14227;47.674;19.320;2022-07-29T01:14:50;28.60;27.70
26579;DHT22;14227;47.674;19.320;2022-07-29T01:17:17;28.50;27.80
26579;DHT22;14227;47.674;19.320;2022-07-29T01:28:48;28.40;28.40
26579;DHT22;14227;47.674;19.320;2022-07-29T01:31:19;28.30;28.40
26579;DHT22;14227;47.674;19.320;2022-07-29T01:33:50;28.20;28.40
26579;DHT22;14227;47.674;19.320;2022-07-29T01:36:32;28.30;28.60
26579;DHT22;14227;47.674;19.320;2022-07-29T01:39:19;28.30;28.70
26579;DHT22;14227;47.674;19.320;2022-07-29T01:42:01;28.30;28.70
26579;DHT22;14227;47.674;19.320;2022-07-29T01:45:09;28.20;28.60
26579;DHT22;14227;47.674;19.320;2022-07-29T01:47:43;28.20;28.40
26579;DHT22;14227;47.674;19.320;2022-07-29T01:50:14;28.20;28.60
26579;DHT22;14227;47.674;19.320;2022-07-29T01:52:52;28.20;28.60
26579;DHT22;14227;47.674;19.320;2022-07-29T01:55:24;28.10;28.60
26579;DHT22;14227;47.674;19.320;2022-07-29T01:57:50;28.10;28.60
26579;DHT22;14227;47.674;19.320;2022-07-29T02:00:17;28.10;28.70
26579;DHT22;14227;47.674;19.320;2022-07-29T02:02:44;28.10;28.70
26579;DHT22;14227;47.674;19.320;2022-07-29T02:05:14;28.10;28.60
26579;DHT22;14227;47.674;19.320;2022-07-29T02:07:40;28.00;28.60
26579;DHT22;14227;47.674;19.320;2022-07-29T02:10:09;28.00;28.60
26579;DHT22;14227;47.674;19.320;2022-07-29T02:12:35;28.00;28.60
26579;DHT22;14227;47.674;19.320;2022-07-29T02:15:03;28.00;28.60
26579;DHT22;14227;47.674;19.320;2022-07-29T02:17:35;28.00;28.60
26579;DHT22;14227;47.674;19.320;2022-07-29T02:20:03;27.90;28.50
26579;DHT22;14227;47.674;19.320;2022-07-29T02:22:30;27.80;28.50
26579;DHT22;14227;47.674;19.320;2022-07-29T02:24:57;27.80;28.50
26579;DHT22;14227;47.674;19.320;2022-07-29T02:27:25;27.80;28.50
26579;DHT22;14227;47.674;19.320;2022-07-29T02:29:52;27.80;28.50
26579;DHT22;14227;47.674;19.320;2022-07-29T02:32:19;27.80;28.50
26579;DHT22;14227;47.674;19.320;2022-07-29T02:34:47;27.80;28.80
26579;DHT22;14227;47.674;19.320;2022-07-29T02:37:13;27.80;28.90
26579;DHT22;14227;47.674;19.320;2022-07-29T02:39:42;27.70;28.90
26579;DHT22;14227;47.674;19.320;2022-07-29T02:42:12;27.70;28.70
26579;DHT22;14227;47.674;19.320;2022-07-29T02:44:39;27.70;28.60
26579;DHT22;14227;47.674;19.320;2022-07-29T02:50:11;27.60;28.60
26579;DHT22;14227;47.674;19.320;2022-07-29T02:55:34;27.50;29.00
26579;DHT22;14227;47.674;19.320;2022-07-29T02:58:21;27.50;29.00
26579;DHT22;14227;47.674;19.320;2022-07-29T03:00:48;27.40;28.90
26579;DHT22;14227;47.674;19.320;2022-07-29T03:03:18;27.40;29.00
26579;DHT22;14227;47.674;19.320;2022-07-29T03:05:44;27.40;28.90
26579;DHT22;14227;47.674;19.320;2022-07-29T03:08:11;27.40;29.10
26579;DHT22;14227;47.674;19.320;2022-07-29T03:10:43;27.40;28.90
26579;DHT22;14227;47.674;19.320;2022-07-29T03:13:10;27.40;28.90
26579;DHT22;14227;47.674;19.320;2022-07-29T03:15:37;27.30;29.00
26579;DHT22;14227;47.674;19.320;2022-07-29T03:18:03;27.30;29.20
26579;DHT22;14227;47.674;19.320;2022-07-29T03:20:29;27.30;29.20
26579;DHT22;14227;47.674;19.320;2022-07-29T03:22:54;27.30;29.30
26579;DHT22;14227;47.674;19.320;2022-07-29T03:25:20;27.20;29.30
26579;DHT22;14227;47.674;19.320;2022-07-29T03:27:47;27.20;29.50
26579;DHT22;14227;47.674;19.320;2022-07-29T03:30:14;27.20;29.50
26579;DHT22;14227;47.674;19.320;2022-07-29T03:32:41;27.10;29.40
26579;DHT22;14227;47.674;19.320;2022-07-29T03:35:07;27.10;29.40
26579;DHT22;14227;47.674;19.320;2022-07-29T03:37:33;27.10;29.40
26579;DHT22;14227;47.674;19.320;2022-07-29T03:40:05;27.00;29.50
26579;DHT22;14227;47.674;19.320;2022-07-29T03:42:34;27.10;29.70
26579;DHT22;14227;47.674;19.320;2022-07-29T03:45:05;27.00;29.80
26579;DHT22;14227;47.674;19.320;2022-07-29T03:47:33;27.00;29.70
26579;DHT22;14227;47.674;19.320;2022-07-29T03:50:05;26.90;29.90
26579;DHT22;14227;47.674;19.320;2022-07-29T03:52:31;26.90;29.80
26579;DHT22;14227;47.674;19.320;2022-07-29T03:54:57;26.90;30.00
26579;DHT22;14227;47.674;19.320;2022-07-29T03:57:25;26.90;30.00
26579;DHT22;14227;47.674;19.320;2022-07-29T03:59:53;26.80;30.00
26579;DHT22;14227;47.674;19.320;2022-07-29T04:02:20;26.80;30.30
26579;DHT22;14227;47.674;19.320;2022-07-29T04:04:46;26.80;30.30
26579;DHT22;14227;47.674;19.320;2022-07-29T04:07:15;26.80;30.50
26579;DHT22;14227;47.674;19.320;2022-07-29T04:09:41;26.80;30.70
26579;DHT22;14227;47.674;19.320;2022-07-29T04:12:07;26.70;30.80
26579;DHT22;14227;47.674;19.320;2022-07-29T04:14:34;26.70;30.90
26579;DHT22;14227;47.674;19.320;2022-07-29T04:17:03;26.70;30.90
26579;DHT22;14227;47.674;19.320;2022-07-29T04:19:30;26.80;31.00
26579;DHT22;14227;47.674;19.320;2022-07-29T04:21:56;26.70;31.10
26579;DHT22;14227;47.674;19.320;2022-07-29T04:24:22;26.70;31.10
26579;DHT22;14227;47.674;19.320;2022-07-29T04:26:48;26.70;31.20
26579;DHT22;14227;47.674;19.320;2022-07-29T04:29:14;26.70;31.40
26579;DHT22;14227;47.674;19.320;2022-07-29T04:31:40;26.60;31.90
26579;DHT22;14227;47.674;19.320;2022-07-29T04:34:07;26.60;31.90
26579;DHT22;14227;47.674;19.320;2022-07-29T04:36:32;26.60;31.90
26579;DHT22;14227;47.674;19.320;2022-07-29T04:38:58;26.60;32.50
26579;DHT22;14227;47.674;19.320;2022-07-29T04:41:24;26.60;31.70
26579;DHT22;14227;47.674;19.320;2022-07-29T04:43:50;26.60;31.70
26579;DHT22;14227;47.674;19.320;2022-07-29T04:46:15;26.60;31.80
26579;DHT22;14227;47.674;19.320;2022-07-29T04:48:41;26.60;32.10
26579;DHT22;14227;47.674;19.320;2022-07-29T04:51:07;26.60;32.40
26579;DHT22;14227;47.674;19.320;2022-07-29T04:53:33;26.60;31.90
26579;DHT22;14227;47.674;19.320;2022-07-29T04:55:58;26.60;32.00
26579;DHT22;14227;47.674;19.320;2022-07-29T04:58:24;26.60;31.10
26579;DHT22;14227;47.674;19.320;2022-07-29T05:00:50;26.60;31.20
26579;DHT22;14227;47.674;19.320;2022-07-29T05:03:17;26.70;31.20
26579;DHT22;14227;47.674;19.320;2022-07-29T05:05:42;26.70;31.00
26579;DHT22;14227;47.674;19.320;2022-07-29T05:08:08;26.70;31.10
26579;DHT22;14227;47.674;19.320;2022-07-29T05:10:34;26.80;31.20
26579;DHT22;14227;47.674;19.320;2022-07-29T05:13:06;26.80;31.20
26579;DHT22;14227;47.674;19.320;2022-07-29T05:15:33;26.80;31.40
26579;DHT22;14227;47.674;19.320;2022-07-29T05:18:00;26.80;31.40
26579;DHT22;14227;47.674;19.320;2022-07-29T05:20:25;26.90;31.60
26579;DHT22;14227;47.674;19.320;2022-07-29T05:22:57;26.80;31.70
26579;DHT22;14227;47.674;19.320;2022-07-29T05:25:24;26.90;31.80
26579;DHT22;14227;47.674;19.320;2022-07-29T05:27:50;26.80;31.60
26579;DHT22;14227;47.674;19.320;2022-07-29T05:30:16;26.80;31.40
26579;DHT22;14227;47.674;19.320;2022-07-29T05:32:41;26.80;31.40
26579;DHT22;14227;47.674;19.320;2022-07-29T05:35:08;26.90;31.90
26579;DHT22;14227;47.674;19.320;2022-07-29T05:37:33;26.90;31.90
26579;DHT22;14227;47.674;19.320;2022-07-29T05:39:59;26.90;32.10
26579;DHT22;14227;47.674;19.320;2022-07-29T05:42:25;26.80;32.30
26579;DHT22;14227;47.674;19.320;2022-07-29T05:44:51;26.80;32.10
26579;DHT22;14227;47.674;19.320;2022-07-29T05:47:17;26.80;32.10
26579;DHT22;14227;47.674;19.320;2022-07-29T05:49:43;26.80;32.40
26579;DHT22;14227;47.674;19.320;2022-07-29T05:52:08;26.80;32.30
26579;DHT22;14227;47.674;19.320;2022-07-29T05:54:35;26.80;32.20
26579;DHT22;14227;47.674;19.320;2022-07-29T05:57:00;26.80;31.80
26579;DHT22;14227;47.674;19.320;2022-07-29T05:59:28;26.80;31.90
26579;DHT22;14227;47.674;19.320;2022-07-29T06:01:54;26.90;32.20
26579;DHT22;14227;47.674;19.320;2022-07-29T06:04:20;26.90;32.40
26579;DHT22;14227;47.674;19.320;2022-07-29T06:06:46;26.80;32.50
26579;DHT22;14227;47.674;19.320;2022-07-29T06:09:11;26.80;32.30
26579;DHT22;14227;47.674;19.320;2022-07-29T06:11:37;26.90;32.20
26579;DHT22;14227;47.674;19.320;2022-07-29T06:14:03;26.90;32.40
26579;DHT22;14227;47.674;19.320;2022-07-29T06:16:29;26.90;32.10
26579;DHT22;14227;47.674;19.320;2022-07-29T06:18:54;27.00;32.40
26579;DHT22;14227;47.674;19.320;2022-07-29T06:21:20;27.00;32.30
26579;DHT22;14227;47.674;19.320;2022-07-29T06:23:46;27.00;32.20
26579;DHT22;14227;47.674;19.320;2022-07-29T06:26:11;27.00;32.30
26579;DHT22;14227;47.674;19.320;2022-07-29T06:28:37;27.00;32.40
26579;DHT22;14227;47.674;19.320;2022-07-29T06:31:03;27.00;32.40
26579;DHT22;14227;47.674;19.320;2022-07-29T06:33:28;27.10;32.40
26579;DHT22;14227;47.674;19.320;2022-07-29T06:35:54;27.20;32.30
26579;DHT22;14227;47.674;19.320;2022-07-29T06:38:20;27.20;32.40
26579;DHT22;14227;47.674;19.320;2022-07-29T06:40:46;27.20;32.20
26579;DHT22;14227;47.674;19.320;2022-07-29T06:46:00;27.20;32.70
26579;DHT22;14227;47.674;19.320;2022-07-29T06:48:27;27.30;32.50
26579;DHT22;14227;47.674;19.320;2022-07-29T06:50:53;27.40;32.30
26579;DHT22;14227;47.674;19.320;2022-07-29T06:53:19;27.40;32.00
26579;DHT22;14227;47.674;19.320;2022-07-29T06:55:44;27.40;32.30
26579;DHT22;14227;47.674;19.320;2022-07-29T06:58:10;27.50;32.10
26579;DHT22;14227;47.674;19.320;2022-07-29T07:00:37;27.50;31.90
26579;DHT22;14227;47.674;19.320;2022-07-29T07:03:02;27.60;31.70
26579;DHT22;14227;47.674;19.320;2022-07-29T07:05:28;27.70;31.70
26579;DHT22;14227;47.674;19.320;2022-07-29T07:07:54;27.70;31.70
26579;DHT22;14227;47.674;19.320;2022-07-29T07:10:19;27.80;31.60
26579;DHT22;14227;47.674;19.320;2022-07-29T07:12:45;27.80;31.30
26579;DHT22;14227;47.674;19.320;2022-07-29T07:15:11;27.90;31.40
26579;DHT22;14227;47.674;19.320;2022-07-29T07:17:36;27.90;31.50
26579;DHT22;14227;47.674;19.320;2022-07-29T07:20:04;28.00;31.30
26579;DHT22;14227;47.674;19.320;2022-07-29T07:22:30;28.10;31.10
26579;DHT22;14227;47.674;19.320;2022-07-29T07:24:56;28.10;31.10
26579;DHT22;14227;47.674;19.320;2022-07-29T07:27:21;28.20;31.20
26579;DHT22;14227;47.674;19.320;2022-07-29T07:29:47;28.30;31.10
26579;DHT22;14227;47.674;19.320;2022-07-29T07:32:13;28.30;30.90
26579;DHT22;14227;47.674;19.320;2022-07-29T07:34:42;28.40;30.90
26579;DHT22;14227;47.674;19.320;2022-07-29T07:37:07;28.50;31.00
26579;DHT22;14227;47.674;19.320;2022-07-29T07:39:33;28.50;30.80
26579;DHT22;14227;47.674;19.320;2022-07-29T07:41:59;28.60;30.70
26579;DHT22;14227;47.674;19.320;2022-07-29T07:44:24;28.70;31.40
26579;DHT22;14227;47.674;19.320;2022-07-29T07:46:50;28.70;30.80
26579;DHT22;14227;47.674;19.320;2022-07-29T07:49:16;28.80;30.50
26579;DHT22;14227;47.674;19.320;2022-07-29T07:51:41;28.80;30.20
26579;DHT22;14227;47.674;19.320;2022-07-29T07:54:07;28.90;30.60
26579;DHT22;14227;47.674;19.320;2022-07-29T07:56:33;28.90;30.60
26579;DHT22;14227;47.674;19.320;2022-07-29T07:58:58;29.00;30.30
26579;DHT22;14227;47.674;19.320;2022-07-29T08:01:24;29.10;30.30
26579;DHT22;14227;47.674;19.320;2022-07-29T08:03:50;29.10;30.00
26579;DHT22;14227;47.674;19.320;2022-07-29T08:06:15;29.20;30.00
26579;DHT22;14227;47.674;19.320;2022-07-29T08:08:41;29.30;30.00
26579;DHT22;14227;47.674;19.320;2022-07-29T08:11:07;29.30;29.40
26579;DHT22;14227;47.674;19.320;2022-07-29T08:13:33;29.40;29.50
26579;DHT22;14227;47.674;19.320;2022-07-29T08:15:59;29.40;29.40
26579;DHT22;14227;47.674;19.320;2022-07-29T08:18:38;29.50;29.40
26579;DHT22;14227;47.674;19.320;2022-07-29T08:21:05;29.50;29.40
26579;DHT22;14227;47.674;19.320;2022-07-29T08:23:31;29.60;29.50
26579;DHT22;14227;47.674;19.320;2022-07-29T08:26:07;29.70;29.50
26579;DHT22;14227;47.674;19.320;2022-07-29T08:28:45;29.70;29.50
26579;DHT22;14227;47.674;19.320;2022-07-29T08:31:12;29.80;29.60
26579;DHT22;14227;47.674;19.320;2022-07-29T08:33:38;29.90;29.60
26579;DHT22;14227;47.674;19.320;2022-07-29T08:36:05;29.90;29.20
26579;DHT22;14227;47.674;19.320;2022-07-29T08:38:32;30.00;29.40
26579;DHT22;14227;47.674;19.320;2022-07-29T08:40:59;30.10;29.20
26579;DHT22;14227;47.674;19.320;2022-07-29T08:43:25;30.20;29.20
26579;DHT22;14227;47.674;19.320;2022-07-29T08:45:51;30.20;29.00
26579;DHT22;14227;47.674;19.320;2022-07-29T08:48:22;30.30;28.90
26579;DHT22;14227;47.674;19.320;2022-07-29T08:50:52;30.40;28.90
26579;DHT22;14227;47.674;19.320;2022-07-29T08:53:19;30.40;29.00
26579;DHT22;14227;47.674;19.320;2022-07-29T08:55:49;30.50;28.60
26579;DHT22;14227;47.674;19.320;2022-07-29T08:58:17;30.50;28.50
26579;DHT22;14227;47.674;19.320;2022-07-29T09:00:45;30.60;28.20
26579;DHT22;14227;47.674;19.320;2022-07-29T09:03:18;30.70;28.60
26579;DHT22;14227;47.674;19.320;2022-07-29T09:05:45;30.80;28.20
26579;DHT22;14227;47.674;19.320;2022-07-29T09:08:15;30.90;27.70
26579;DHT22;14227;47.674;19.320;2022-07-29T09:10:41;31.00;27.60
26579;DHT22;14227;47.674;19.320;2022-07-29T09:13:07;31.00;27.50
26579;DHT22;14227;47.674;19.320;2022-07-29T09:15:33;31.10;27.20
26579;DHT22;14227;47.674;19.320;2022-07-29T09:17:59;31.20;27.10
26579;DHT22;14227;47.674;19.320;2022-07-29T09:20:26;31.20;27.20
26579;DHT22;14227;47.674;19.320;2022-07-29T09:23:12;31.30;26.80
26579;DHT22;14227;47.674;19.320;2022-07-29T09:25:39;31.40;26.80
26579;DHT22;14227;47.674;19.320;2022-07-29T09:28:14;31.50;26.80
26579;DHT22;14227;47.674;19.320;2022-07-29T09:30:56;31.50;26.70
26579;DHT22;14227;47.674;19.320;2022-07-29T09:33:25;31.60;26.20
26579;DHT22;14227;47.674;19.320;2022-07-29T09:36:07;31.70;26.30
26579;DHT22;14227;47.674;19.320;2022-07-29T09:38:34;31.80;26.10
26579;DHT22;14227;47.674;19.320;2022-07-29T09:41:01;31.80;26.10
26579;DHT22;14227;47.674;19.320;2022-07-29T09:43:27;31.90;26.10
26579;DHT22;14227;47.674;19.320;2022-07-29T09:45:53;32.00;25.80
26579;DHT22;14227;47.674;19.320;2022-07-29T09:48:24;32.10;25.60
26579;DHT22;14227;47.674;19.320;2022-07-29T09:50:50;32.20;25.50
26579;DHT22;14227;47.674;19.320;2022-07-29T09:55:58;32.30;25.40
26579;DHT22;14227;47.674;19.320;2022-07-29T09:58:24;32.40;24.50
26579;DHT22;14227;47.674;19.320;2022-07-29T10:00:52;32.50;24.20
26579;DHT22;14227;47.674;19.320;2022-07-29T10:03:18;32.60;23.80
26579;DHT22;14227;47.674;19.320;2022-07-29T10:05:44;32.60;23.90
26579;DHT22;14227;47.674;19.320;2022-07-29T10:08:11;32.60;23.60
26579;DHT22;14227;47.674;19.320;2022-07-29T10:10:42;32.70;23.40
26579;DHT22;14227;47.674;19.320;2022-07-29T10:13:13;32.80;23.20
26579;DHT22;14227;47.674;19.320;2022-07-29T10:15:41;32.90;23.50
26579;DHT22;14227;47.674;19.320;2022-07-29T10:18:10;32.90;23.30
26579;DHT22;14227;47.674;19.320;2022-07-29T10:20:37;33.10;23.00
26579;DHT22;14227;47.674;19.320;2022-07-29T10:23:03;33.10;22.10
26579;DHT22;14227;47.674;19.320;2022-07-29T10:25:29;33.10;22.40
26579;DHT22;14227;47.674;19.320;2022-07-29T10:27:55;33.10;22.10
26579;DHT22;14227;47.674;19.320;2022-07-29T10:30:23;33.20;22.00
26579;DHT22;14227;47.674;19.320;2022-07-29T10:33:09;33.30;21.90
26579;DHT22;14227;47.674;19.320;2022-07-29T10:35:54;33.30;22.20
26579;DHT22;14227;47.674;19.320;2022-07-29T10:41:11;33.50;21.60
26579;DHT22;14227;47.674;19.320;2022-07-29T10:44:03;33.50;21.50
26579;DHT22;14227;47.674;19.320;2022-07-29T10:46:36;33.40;21.30
26579;DHT22;14227;47.674;19.320;2022-07-29T10:49:10;33.40;21.90
26579;DHT22;14227;47.674;19.320;2022-07-29T10:52:09;33.40;21.70
26579;DHT22;14227;47.674;19.320;2022-07-29T10:54:37;33.40;21.70
26579;DHT22;14227;47.674;19.320;2022-07-29T10:57:19;33.30;21.30
26579;DHT22;14227;47.674;19.320;2022-07-29T11:07:39;33.40;21.70
26579;DHT22;14227;47.674;19.320;2022-07-29T11:10:23;33.40;21.70
26579;DHT22;14227;47.674;19.320;2022-07-29T11:12:49;33.40;22.30
26579;DHT22;14227;47.674;19.320;2022-07-29T11:15:21;33.40;22.30
26579;DHT22;14227;47.674;19.320;2022-07-29T11:20:32;33.40;22.20
26579;DHT22;14227;47.674;19.320;2022-07-29T11:22:58;33.50;22.10
26579;DHT22;14227;47.674;19.320;2022-07-29T11:25:24;33.50;22.10
26579;DHT22;14227;47.674;19.320;2022-07-29T11:27:52;33.50;21.80
26579;DHT22;14227;47.674;19.320;2022-07-29T11:30:18;33.50;21.80
26579;DHT22;14227;47.674;19.320;2022-07-29T11:32:44;33.60;22.20
26579;DHT22;14227;47.674;19.320;2022-07-29T11:35:22;33.50;22.30
26579;DHT22;14227;47.674;19.320;2022-07-29T11:38:26;33.50;22.00
26579;DHT22;14227;47.674;19.320;2022-07-29T11:43:47;33.50;21.90
26579;DHT22;14227;47.674;19.320;2022-07-29T11:46:13;33.50;22.30
26579;DHT22;14227;47.674;19.320;2022-07-29T11:48:42;33.60;22.40
26579;DHT22;14227;47.674;19.320;2022-07-29T11:51:11;33.60;22.20
26579;DHT22;14227;47.674;19.320;2022-07-29T11:53:38;33.60;22.30
26579;DHT22;14227;47.674;19.320;2022-07-29T11:56:08;33.60;21.90
26579;DHT22;14227;47.674;19.320;2022-07-29T11:58:33;33.50;21.60
26579;DHT22;14227;47.674;19.320;2022-07-29T12:01:00;33.50;22.00
26579;DHT22;14227;47.674;19.320;2022-07-29T12:03:28;33.50;22.00
26579;DHT22;14227;47.674;19.320;2022-07-29T12:05:54;33.50;22.30
26579;DHT22;14227;47.674;19.320;2022-07-29T12:08:22;33.60;22.40
26579;DHT22;14227;47.674;19.320;2022-07-29T12:10:49;33.60;21.70
26579;DHT22;14227;47.674;19.320;2022-07-29T12:13:17;33.60;21.60
26579;DHT22;14227;47.674;19.320;2022-07-29T12:15:52;33.70;21.50
26579;DHT22;14227;47.674;19.320;2022-07-29T12:18:19;33.60;21.10
26579;DHT22;14227;47.674;19.320;2022-07-29T12:20:46;33.60;21.70
26579;DHT22;14227;47.674;19.320;2022-07-29T12:23:14;33.70;21.70
26579;DHT22;14227;47.674;19.320;2022-07-29T12:25:42;33.60;21.50
26579;DHT22;14227;47.674;19.320;2022-07-29T12:28:13;33.60;21.70
26579;DHT22;14227;47.674;19.320;2022-07-29T12:30:46;33.70;21.40
26579;DHT22;14227;47.674;19.320;2022-07-29T12:33:23;33.70;21.30
26579;DHT22;14227;47.674;19.320;2022-07-29T12:35:55;33.70;21.10
26579;DHT22;14227;47.674;19.320;2022-07-29T12:38:21;33.70;21.40
26579;DHT22;14227;47.674;19.320;2022-07-29T12:40:48;33.70;20.80
26579;DHT22;14227;47.674;19.320;2022-07-29T12:43:19;33.70;21.10
26579;DHT22;14227;47.674;19.320;2022-07-29T12:45:47;33.70;21.30
26579;DHT22;14227;47.674;19.320;2022-07-29T12:48:14;33.70;21.30
26579;DHT22;14227;47.674;19.320;2022-07-29T12:50:56;33.70;21.00
26579;DHT22;14227;47.674;19.320;2022-07-29T12:53:22;33.70;21.30
26579;DHT22;14227;47.674;19.320;2022-07-29T12:55:50;33.70;21.30
26579;DHT22;14227;47.674;19.320;2022-07-29T12:58:46;33.70;21.40
26579;DHT22;14227;47.674;19.320;2022-07-29T13:01:14;33.70;21.20
26579;DHT22;14227;47.674;19.320;2022-07-29T13:03:52;33.70;21.40
26579;DHT22;14227;47.674;19.320;2022-07-29T13:06:39;33.70;21.80
26579;DHT22;14227;47.674;19.320;2022-07-29T13:09:12;33.80;21.50
26579;DHT22;14227;47.674;19.320;2022-07-29T13:14:10;33.90;22.30
26579;DHT22;14227;47.674;19.320;2022-07-29T13:16:38;33.80;21.70
26579;DHT22;14227;47.674;19.320;2022-07-29T13:19:35;33.80;21.40
26579;DHT22;14227;47.674;19.320;2022-07-29T13:22:01;33.90;21.40
26579;DHT22;14227;47.674;19.320;2022-07-29T13:24:27;33.80;21.70
26579;DHT22;14227;47.674;19.320;2022-07-29T13:26:53;33.90;21.90
26579;DHT22;14227;47.674;19.320;2022-07-29T13:29:18;33.90;21.30
26579;DHT22;14227;47.674;19.320;2022-07-29T13:31:44;34.00;21.40
26579;DHT22;14227;47.674;19.320;2022-07-29T13:34:10;34.00;21.10
26579;DHT22;14227;47.674;19.320;2022-07-29T13:36:36;34.00;20.90
26579;DHT22;14227;47.674;19.320;2022-07-29T13:39:02;34.10;20.70
26579;DHT22;14227;47.674;19.320;2022-07-29T13:41:28;34.20;20.70
26579;DHT22;14227;47.674;19.320;2022-07-29T13:43:54;34.10;21.00
26579;DHT22;14227;47.674;19.320;2022-07-29T13:46:20;34.10;21.10
26579;DHT22;14227;47.674;19.320;2022-07-29T13:48:46;34.20;20.70
26579;DHT22;14227;47.674;19.320;2022-07-29T13:51:12;34.20;20.00
26579;DHT22;14227;47.674;19.320;2022-07-29T13:53:38;34.30;20.40
26579;DHT22;14227;47.674;19.320;2022-07-29T13:56:04;34.30;20.20
26579;DHT22;14227;47.674;19.320;2022-07-29T13:58:32;34.40;20.50
26579;DHT22;14227;47.674;19.320;2022-07-29T14:00:58;34.40;20.70
26579;DHT22;14227;47.674;19.320;2022-07-29T14:03:24;34.50;19.70
26579;DHT22;14227;47.674;19.320;2022-07-29T14:05:50;34.60;20.50
26579;DHT22;14227;47.674;19.320;2022-07-29T14:08:16;34.60;19.60
26579;DHT22;14227;47.674;19.320;2022-07-29T14:10:41;34.60;20.30
26579;DHT22;14227;47.674;19.320;2022-07-29T14:13:07;34.70;20.30
26579;DHT22;14227;47.674;19.320;2022-07-29T14:15:33;34.60;20.20
26579;DHT22;14227;47.674;19.320;2022-07-29T14:17:58;34.70;19.90
26579;DHT22;14227;47.674;19.320;2022-07-29T14:20:24;34.70;19.80
26579;DHT22;14227;47.674;19.320;2022-07-29T14:22:50;34.80;19.60
26579;DHT22;14227;47.674;19.320;2022-07-29T14:25:15;34.80;19.50
26579;DHT22;14227;47.674;19.320;2022-07-29T14:27:42;34.90;19.30
26579;DHT22;14227;47.674;19.320;2022-07-29T14:30:09;34.90;19.00
26579;DHT22;14227;47.674;19.320;2022-07-29T14:32:35;35.00;19.50
26579;DHT22;14227;47.674;19.320;2022-07-29T14:35:00;35.00;19.50
26579;DHT22;14227;47.674;19.320;2022-07-29T14:37:26;35.10;18.90
26579;DHT22;14227;47.674;19.320;2022-07-29T14:39:52;35.10;18.90
26579;DHT22;14227;47.674;19.320;2022-07-29T14:42:19;35.10;18.70
26579;DHT22;14227;47.674;19.320;2022-07-29T14:44:44;35.20;18.90
26579;DHT22;14227;47.674;19.320;2022-07-29T14:47:10;35.20;18.80
26579;DHT22;14227;47.674;19.320;2022-07-29T14:49:36;35.20;18.40
26579;DHT22;14227;47.674;19.320;2022-07-29T14:52:02;35.30;18.50
26579;DHT22;14227;47.674;19.320;2022-07-29T14:54:27;35.30;18.50
26579;DHT22;14227;47.674;19.320;2022-07-29T14:56:53;35.30;18.50
26579;DHT22;14227;47.674;19.320;2022-07-29T14:59:22;35.40;18.60
26579;DHT22;14227;47.674;19.320;2022-07-29T15:01:47;35.30;18.50
26579;DHT22;14227;47.674;19.320;2022-07-29T15:04:13;35.40;18.60
26579;DHT22;14227;47.674;19.320;2022-07-29T15:06:39;35.30;18.50
26579;DHT22;14227;47.674;19.320;2022-07-29T15:09:04;35.30;18.50
26579;DHT22;14227;47.674;19.320;2022-07-29T15:11:30;35.40;19.10
26579;DHT22;14227;47.674;19.320;2022-07-29T15:13:56;35.40;18.60
26579;DHT22;14227;47.674;19.320;2022-07-29T15:16:21;35.40;18.60
26579;DHT22;14227;47.674;19.320;2022-07-29T15:18:47;35.40;18.60
26579;DHT22;14227;47.674;19.320;2022-07-29T15:21:12;35.50;18.60
26579;DHT22;14227;47.674;19.320;2022-07-29T15:23:39;35.40;18.60
26579;DHT22;14227;47.674;19.320;2022-07-29T15:26:04;35.50;18.60
26579;DHT22;14227;47.674;19.320;2022-07-29T15:28:30;35.50;18.60
26579;DHT22;14227;47.674;19.320;2022-07-29T15:30:56;35.50;18.60
26579;DHT22;14227;47.674;19.320;2022-07-29T15:33:21;35.60;19.20
26579;DHT22;14227;47.674;19.320;2022-07-29T15:35:47;35.50;18.60
26579;DHT22;14227;47.674;19.320;2022-07-29T15:38:12;35.50;18.60
26579;DHT22;14227;47.674;19.320;2022-07-29T15:40:39;35.60;18.70
26579;DHT22;14227;47.674;19.320;2022-07-29T15:43:07;35.60;18.70
26579;DHT22;14227;47.674;19.320;2022-07-29T15:45:37;35.50;18.60
26579;DHT22;14227;47.674;19.320;2022-07-29T15:48:05;35.50;18.60
26579;DHT22;14227;47.674;19.320;2022-07-29T15:50:32;35.60;18.70
26579;DHT22;14227;47.674;19.320;2022-07-29T15:52:58;35.50;18.80
26579;DHT22;14227;47.674;19.320;2022-07-29T15:55:23;35.50;19.10
26579;DHT22;14227;47.674;19.320;2022-07-29T15:57:49;35.50;19.10
26579;DHT22;14227;47.674;19.320;2022-07-29T16:00:15;35.50;19.50